Time;durP1;ratioP1;P1;durP2;ratioP2;P2;SDS_P1;SDS_P2;PMS_P1;PMS_P2;Temp;Humidity;BMP_temperature;BMP_pressure;BME280_temperature;BME280_humidity;BME280_pressure;Samples;Min_cycle;Max_cycle;Signal;HPM_P1;HPM_P2
2023/07/20 00:01:04;;;;;;;1.20;1.20;;;;;;;;;;5026315;28;20286;-81
2023/07/20 00:03:32;;;;;;;1.77;1.40;;;;;;;;;;5027180;28;20231;-81
2023/07/20 00:05:58;;;;;;;1.40;1.30;;;;;;;;;;5024945;28;20579;-80
2023/07/20 00:08:24;;;;;;;1.70;1.40;;;;;;;;;;5025517;28;20223;-80
2023/07/20 00:10:49;;;;;;;1.93;1.17;;;;;;;;;;5009555;28;20222;-80
2023/07/20 00:13:18;;;;;;;1.30;1.20;;;;;;;;;;5014246;28;20687;-81
2023/07/20 00:15:44;;;;;;;1.42;1.42;;;;;;;;;;4993230;28;20219;-81
2023/07/20 00:18:12;;;;;;;2.47;1.30;;;;;;;;;;5033710;28;20211;-82
2023/07/20 00:20:38;;;;;;;1.35;1.20;;;;;;;;;;5045216;28;20247;-81
2023/07/20 00:23:03;;;;;;;1.52;1.42;;;;;;;;;;5011723;28;20223;-81
2023/07/20 00:25:29;;;;;;;1.58;1.48;;;;;;;;;;5013365;28;20218;-81
2023/07/20 00:27:57;;;;;;;3.50;1.35;;;;;;;;;;5046069;28;20215;-81
2023/07/20 00:30:23;;;;;;;2.45;1.27;;;;;;;;;;5030132;28;20268;-80
2023/07/20 00:32:48;;;;;;;1.30;1.30;;;;;;;;;;5026831;28;20223;-80
2023/07/20 00:35:15;;;;;;;3.10;1.67;;;;;;;;;;5029503;28;20216;-80
2023/07/20 00:37:40;;;;;;;1.73;1.30;;;;;;;;;;5012930;28;20277;-80
2023/07/20 00:40:09;;;;;;;1.70;1.60;;;;;;;;;;5012869;28;20288;-81
2023/07/20 00:42:34;;;;;;;1.50;1.40;;;;;;;;;;5029781;28;20238;-81
2023/07/20 00:45:01;;;;;;;1.50;1.40;;;;;;;;;;5023769;28;20208;-80
2023/07/20 00:47:28;;;;;;;2.23;1.30;;;;;;;;;;5027712;28;20346;-79
2023/07/20 00:49:56;;;;;;;1.30;1.20;;;;;;;;;;5028594;28;20227;-79
2023/07/20 00:52:22;;;;;;;1.90;1.13;;;;;;;;;;5028527;28;20298;-80
2023/07/20 00:54:48;;;;;;;2.63;1.37;;;;;;;;;;5011187;28;20239;-80
2023/07/20 00:57:16;;;;;;;1.30;1.20;;;;;;;;;;5010708;28;20218;-81
2023/07/20 00:59:46;;;;;;;1.10;1.10;;;;;;;;;;5028187;28;20377;-81
2023/07/20 01:02:17;;;;;;;1.30;1.20;;;;;;;;;;5044621;28;20234;-80
2023/07/20 01:04:42;;;;;;;2.63;1.20;;;;;;;;;;5018062;28;20672;-81
2023/07/20 01:07:21;;;;;;;1.20;1.10;;;;;;;;;;5000725;28;20982;-83
2023/07/20 01:10:10;;;;;;;1.60;1.33;;;;;;;;;;5043432;28;20265;-81
2023/07/20 01:12:47;;;;;;;1.23;1.00;;;;;;;;;;5028972;28;20212;-83
2023/07/20 01:15:12;;;;;;;1.27;1.10;;;;;;;;;;5015008;28;20218;-83
2023/07/20 01:17:38;;;;;;;0.90;0.90;;;;;;;;;;5019115;28;20218;-81
2023/07/20 01:20:07;;;;;;;1.00;1.00;;;;;;;;;;5016474;28;20223;-83
2023/07/20 01:22:44;;;;;;;4.47;1.50;;;;;;;;;;5035287;28;20237;-83
2023/07/20 01:25:25;;;;;;;2.28;1.10;;;;;;;;;;5022574;28;20224;-80
2023/07/20 01:28:06;;;;;;;1.63;1.40;;;;;;;;;;5048361;28;20227;-80
2023/07/20 01:30:54;;;;;;;1.50;1.40;;;;;;;;;;5033893;28;20254;-79
2023/07/20 01:33:20;;;;;;;1.23;1.13;;;;;;;;;;5016602;28;20229;-79
2023/07/20 01:35:48;;;;;;;2.22;1.30;;;;;;;;;;5012205;28;20223;-78
2023/07/20 01:38:13;;;;;;;1.45;1.35;;;;;;;;;;5009490;28;20226;-79
2023/07/20 01:40:39;;;;;;;1.30;1.20;;;;;;;;;;5017249;28;20231;-80
2023/07/20 01:43:05;;;;;;;1.27;1.20;;;;;;;;;;4997289;28;20231;-78
2023/07/20 01:45:30;;;;;;;1.83;1.33;;;;;;;;;;5024065;28;20250;-76
2023/07/20 01:47:56;;;;;;;1.50;1.30;;;;;;;;;;5038734;28;20302;-77
2023/07/20 01:50:22;;;;;;;1.38;1.27;;;;;;;;;;5029068;28;20236;-76
2023/07/20 01:52:48;;;;;;;1.37;1.27;;;;;;;;;;5017942;28;20219;-79
2023/07/20 01:55:13;;;;;;;1.60;1.50;;;;;;;;;;5007019;28;20216;-79
2023/07/20 01:57:39;;;;;;;1.58;1.40;;;;;;;;;;5018346;28;20700;-79
2023/07/20 02:00:05;;;;;;;1.52;1.42;;;;;;;;;;5001957;28;20328;-77
2023/07/20 02:02:40;;;;;;;1.90;1.75;;;;;;;;;;5043587;28;20318;-80
2023/07/20 02:05:06;;;;;;;2.92;1.55;;;;;;;;;;5040375;28;20710;-81
2023/07/20 02:07:31;;;;;;;1.63;1.45;;;;;;;;;;5032323;28;20238;-80
2023/07/20 02:09:57;;;;;;;1.88;1.67;;;;;;;;;;5020140;28;20220;-80
2023/07/20 02:12:22;;;;;;;3.38;1.80;;;;;;;;;;5012970;28;20988;-81
2023/07/20 02:14:48;;;;;;;2.17;1.80;;;;;;;;;;5010985;28;20580;-79
2023/07/20 02:17:18;;;;;;;2.55;1.73;;;;;;;;;;4992122;28;20220;-79
2023/07/20 02:19:46;;;;;;;1.83;1.73;;;;;;;;;;5043242;28;20208;-79
2023/07/20 02:22:12;;;;;;;2.90;1.63;;;;;;;;;;5006963;28;20723;-79
2023/07/20 02:24:38;;;;;;;2.08;1.80;;;;;;;;;;4999799;28;20219;-78
2023/07/20 02:27:04;;;;;;;1.83;1.58;;;;;;;;;;5015755;28;20273;-79
2023/07/20 02:29:29;;;;;;;1.80;1.70;;;;;;;;;;5031922;28;20227;-78
2023/07/20 02:31:55;;;;;;;2.40;2.08;;;;;;;;;;5031586;28;20230;-80
2023/07/20 02:34:22;;;;;;;2.60;2.40;;;;;;;;;;5006113;28;20835;-77
2023/07/20 02:36:48;;;;;;;2.10;1.90;;;;;;;;;;5047679;28;20219;-78
2023/07/20 02:39:17;;;;;;;2.33;2.13;;;;;;;;;;5034550;28;20223;-77
2023/07/20 02:41:43;;;;;;;2.20;2.00;;;;;;;;;;5039878;28;20299;-79
2023/07/20 02:44:10;;;;;;;2.35;2.15;;;;;;;;;;5025700;28;20215;-80
2023/07/20 02:46:36;;;;;;;2.50;2.30;;;;;;;;;;5031477;28;20234;-79
2023/07/20 02:49:01;;;;;;;3.15;2.75;;;;;;;;;;5033431;28;20220;-80
2023/07/20 02:51:27;;;;;;;7.57;2.60;;;;;;;;;;5023134;28;20212;-81
2023/07/20 02:53:55;;;;;;;2.20;2.00;;;;;;;;;;5033511;28;20222;-81
2023/07/20 02:56:22;;;;;;;2.50;2.40;;;;;;;;;;5017418;28;20231;-85
2023/07/20 02:58:48;;;;;;;2.77;2.53;;;;;;;;;;4999552;28;20214;-81
2023/07/20 03:01:15;;;;;;;2.78;2.58;;;;;;;;;;5014330;28;20212;-83
2023/07/20 03:03:45;;;;;;;3.77;2.40;;;;;;;;;;5010971;28;20322;-80
2023/07/20 03:06:14;;;;;;;2.53;2.33;;;;;;;;;;5010545;28;20279;-79
2023/07/20 03:08:45;;;;;;;2.47;2.27;;;;;;;;;;4993038;28;20219;-78
2023/07/20 03:11:15;;;;;;;2.37;2.17;;;;;;;;;;5023383;28;20256;-78
2023/07/20 03:13:42;;;;;;;2.00;1.90;;;;;;;;;;4996011;28;20251;-78
2023/07/20 03:16:11;;;;;;;2.20;2.00;;;;;;;;;;5038449;28;21086;-79
2023/07/20 03:18:40;;;;;;;2.42;2.05;;;;;;;;;;5030506;28;20302;-79
2023/07/20 03:21:08;;;;;;;2.70;2.00;;;;;;;;;;5044984;28;20704;-79
2023/07/20 03:23:36;;;;;;;2.07;1.70;;;;;;;;;;5015689;28;20886;-80
2023/07/20 03:26:02;;;;;;;1.97;1.87;;;;;;;;;;5006288;28;20223;-80
2023/07/20 03:28:27;;;;;;;2.97;2.00;;;;;;;;;;5030551;28;20223;-80
2023/07/20 03:30:58;;;;;;;1.70;1.60;;;;;;;;;;5017722;28;20268;-78
2023/07/20 03:33:26;;;;;;;3.90;1.90;;;;;;;;;;5031073;28;20215;-80
2023/07/20 03:35:53;;;;;;;2.57;1.50;;;;;;;;;;5014723;28;20212;-78
2023/07/20 03:38:20;;;;;;;1.60;1.50;;;;;;;;;;5022315;28;20615;-80
2023/07/20 03:40:54;;;;;;;1.53;1.43;;;;;;;;;;5027476;28;20230;-80
2023/07/20 03:43:22;;;;;;;2.43;1.40;;;;;;;;;;5041835;28;20607;-79
2023/07/20 03:45:48;;;;;;;1.77;1.50;;;;;;;;;;5024807;28;20222;-78
2023/07/20 03:48:15;;;;;;;1.40;1.30;;;;;;;;;;5008914;28;20219;-78
2023/07/20 03:50:41;;;;;;;1.70;1.35;;;;;;;;;;5031511;28;20219;-79
2023/07/20 03:53:06;;;;;;;1.40;1.30;;;;;;;;;;5023248;28;20649;-79
2023/07/20 03:55:32;;;;;;;2.40;1.20;;;;;;;;;;5014230;28;20222;-79
2023/07/20 03:57:58;;;;;;;1.30;1.20;;;;;;;;;;5039354;28;20296;-79
2023/07/20 04:04:41;;;;;;;1.17;1.07;;;;;;;;;;5042175;28;20246;-78
2023/07/20 04:07:07;;;;;;;1.30;1.00;;;;;;;;;;5036091;28;20294;-78
2023/07/20 04:09:33;;;;;;;1.73;1.27;;;;;;;;;;5021885;28;20224;-76
2023/07/20 04:11:58;;;;;;;1.27;1.17;;;;;;;;;;5008757;28;20211;-76
2023/07/20 04:14:24;;;;;;;2.83;1.10;;;;;;;;;;5030218;28;20227;-78
2023/07/20 04:16:52;;;;;;;1.13;1.03;;;;;;;;;;5031079;28;20223;-77
2023/07/20 04:19:20;;;;;;;1.13;1.10;;;;;;;;;;5019717;28;20227;-79
2023/07/20 04:21:45;;;;;;;1.10;1.00;;;;;;;;;;5024557;28;20223;-79
2023/07/20 04:24:13;;;;;;;1.17;1.10;;;;;;;;;;4987147;28;20756;-79
2023/07/20 04:26:38;;;;;;;4.13;1.40;;;;;;;;;;5008539;28;20733;-77
2023/07/20 04:29:04;;;;;;;2.60;2.27;;;;;;;;;;4997958;28;20212;-78
2023/07/20 04:31:34;;;;;;;1.40;1.30;;;;;;;;;;4991789;28;20270;-77
2023/07/20 04:34:01;;;;;;;1.40;1.30;;;;;;;;;;5024011;28;20215;-77
2023/07/20 04:36:27;;;;;;;1.20;1.10;;;;;;;;;;5041553;28;20216;-77
2023/07/20 04:38:56;;;;;;;1.47;1.37;;;;;;;;;;4995227;28;20213;-79
2023/07/20 04:41:22;;;;;;;1.53;1.33;;;;;;;;;;5029616;28;20231;-78
2023/07/20 04:43:52;;;;;;;1.10;1.10;;;;;;;;;;5030115;28;20692;-79
2023/07/20 04:46:27;;;;;;;1.20;1.10;;;;;;;;;;5017909;28;20223;-78
2023/07/20 04:48:53;;;;;;;1.20;1.10;;;;;;;;;;5015785;28;20617;-78
2023/07/20 04:51:20;;;;;;;1.63;1.30;;;;;;;;;;5044058;28;20230;-79
2023/07/20 04:53:48;;;;;;;1.30;1.20;;;;;;;;;;5013284;28;20235;-77
2023/07/20 04:56:16;;;;;;;1.53;1.37;;;;;;;;;;4990282;28;20211;-79
2023/07/20 04:58:42;;;;;;;1.83;1.30;;;;;;;;;;5023769;28;20230;-79
2023/07/20 05:01:10;;;;;;;2.20;1.37;;;;;;;;;;5043413;28;20763;-77
2023/07/20 05:03:39;;;;;;;1.87;1.00;;;;;;;;;;5024958;28;20231;-79
2023/07/20 05:06:07;;;;;;;0.90;0.90;;;;;;;;;;5013038;28;20208;-79
2023/07/20 05:08:33;;;;;;;1.03;0.97;;;;;;;;;;5019643;28;20242;-79
2023/07/20 05:10:59;;;;;;;1.03;1.00;;;;;;;;;;5041528;28;20692;-78
2023/07/20 05:13:25;;;;;;;2.93;1.40;;;;;;;;;;5016322;28;20219;-79
2023/07/20 05:16:02;;;;;;;1.37;1.00;;;;;;;;;;5017433;28;20229;-79
2023/07/20 05:18:31;;;;;;;1.23;1.00;;;;;;;;;;5017538;28;20302;-77
2023/07/20 05:20:59;;;;;;;2.03;1.40;;;;;;;;;;5021061;28;20242;-79
2023/07/20 05:23:25;;;;;;;1.10;1.10;;;;;;;;;;5022848;28;20240;-78
2023/07/20 05:25:57;;;;;;;1.10;1.00;;;;;;;;;;5015138;28;20223;-78
2023/07/20 05:28:26;;;;;;;0.90;0.90;;;;;;;;;;4995983;28;20235;-79
2023/07/20 05:30:51;;;;;;;1.00;1.00;;;;;;;;;;5030125;28;20255;-78
2023/07/20 05:33:20;;;;;;;1.00;1.00;;;;;;;;;;5021305;28;20287;-78
2023/07/20 05:35:48;;;;;;;1.05;1.00;;;;;;;;;;5028534;28;20239;-78
2023/07/20 05:38:16;;;;;;;1.57;1.23;;;;;;;;;;5020638;28;20215;-78
2023/07/20 05:40:42;;;;;;;0.80;0.80;;;;;;;;;;5005766;28;20226;-77
2023/07/20 05:43:08;;;;;;;1.00;1.00;;;;;;;;;;5013273;28;20243;-79
2023/07/20 05:45:33;;;;;;;1.53;0.97;;;;;;;;;;5021885;28;20240;-79
2023/07/20 05:47:59;;;;;;;2.37;0.90;;;;;;;;;;5034417;28;20219;-79
2023/07/20 05:50:27;;;;;;;0.77;0.60;;;;;;;;;;5034003;28;20223;-80
2023/07/20 05:52:55;;;;;;;0.97;0.97;;;;;;;;;;5019230;28;20230;-78
2023/07/20 05:55:21;;;;;;;0.97;0.87;;;;;;;;;;5000265;28;20255;-79
2023/07/20 05:57:47;;;;;;;1.02;0.77;;;;;;;;;;5044615;28;20219;-79
2023/07/20 06:00:13;;;;;;;0.73;0.73;;;;;;;;;;5038281;28;20228;-78
2023/07/20 06:02:39;;;;;;;1.30;1.20;;;;;;;;;;5036221;28;20319;-79
2023/07/20 06:05:11;;;;;;;1.05;0.95;;;;;;;;;;5032671;28;20706;-78
2023/07/20 06:07:37;;;;;;;1.10;1.00;;;;;;;;;;5036037;28;20230;-77
2023/07/20 06:10:03;;;;;;;1.08;1.08;;;;;;;;;;5040692;28;20211;-79
2023/07/20 06:12:28;;;;;;;1.08;1.08;;;;;;;;;;5021878;28;20378;-79
2023/07/20 06:14:54;;;;;;;1.37;1.20;;;;;;;;;;5035417;28;20265;-78
2023/07/20 06:17:21;;;;;;;1.33;1.30;;;;;;;;;;5022055;28;20223;-78
2023/07/20 06:19:48;;;;;;;1.67;1.35;;;;;;;;;;4983641;28;20223;-78
2023/07/20 06:22:14;;;;;;;1.65;1.30;;;;;;;;;;5017536;28;20234;-78
2023/07/20 06:24:40;;;;;;;1.63;1.53;;;;;;;;;;5031771;28;20235;-78
2023/07/20 06:27:07;;;;;;;2.00;1.60;;;;;;;;;;5003285;28;20216;-78
2023/07/20 06:29:35;;;;;;;2.08;1.88;;;;;;;;;;5047453;28;20250;-77
2023/07/20 06:32:00;;;;;;;2.85;1.80;;;;;;;;;;5030182;28;20223;-77
2023/07/20 06:34:36;;;;;;;1.92;1.83;;;;;;;;;;5039067;28;20219;-78
2023/07/20 06:37:03;;;;;;;2.42;1.88;;;;;;;;;;5047596;28;20211;-76
2023/07/20 06:39:29;;;;;;;2.20;2.00;;;;;;;;;;5045626;28;20243;-77
2023/07/20 06:41:55;;;;;;;2.53;1.73;;;;;;;;;;5040856;28;20310;-78
2023/07/20 06:44:23;;;;;;;1.70;1.60;;;;;;;;;;5038042;28;20220;-77
2023/07/20 06:46:49;;;;;;;1.98;1.88;;;;;;;;;;5031212;28;22479;-79
2023/07/20 06:49:27;;;;;;;1.58;1.40;;;;;;;;;;5034321;28;20250;-77
2023/07/20 06:51:53;;;;;;;2.35;1.30;;;;;;;;;;5019034;28;20226;-77
2023/07/20 06:54:18;;;;;;;2.25;1.35;;;;;;;;;;5025631;28;20224;-78
2023/07/20 06:56:44;;;;;;;2.30;1.27;;;;;;;;;;5015985;28;20216;-77
2023/07/20 06:59:09;;;;;;;1.80;1.30;;;;;;;;;;5043486;28;20274;-79
2023/07/20 07:01:35;;;;;;;2.13;1.30;;;;;;;;;;5015612;28;20271;-78
2023/07/20 07:04:05;;;;;;;1.30;1.20;;;;;;;;;;5015046;28;20223;-78
2023/07/20 07:06:31;;;;;;;2.75;1.15;;;;;;;;;;5015919;28;20273;-78
2023/07/20 07:08:59;;;;;;;1.55;0.80;;;;;;;;;;5021404;28;20270;-78
2023/07/20 07:11:30;;;;;;;1.98;1.15;;;;;;;;;;5010828;28;20223;-78
2023/07/20 07:13:56;;;;;;;1.38;1.20;;;;;;;;;;5027219;28;20311;-77
2023/07/20 07:16:21;;;;;;;1.00;0.88;;;;;;;;;;5029605;28;20219;-78
2023/07/20 07:18:47;;;;;;;1.38;0.90;;;;;;;;;;5033592;28;20226;-78
2023/07/20 07:21:13;;;;;;;0.98;0.95;;;;;;;;;;5008196;28;20248;-78
2023/07/20 07:23:39;;;;;;;1.95;0.90;;;;;;;;;;5007025;28;20236;-78
2023/07/20 07:26:04;;;;;;;1.35;0.70;;;;;;;;;;5013566;28;20283;-79
2023/07/20 07:28:31;;;;;;;1.58;0.63;;;;;;;;;;5007207;28;20223;-76
2023/07/20 07:30:57;;;;;;;2.33;0.90;;;;;;;;;;5031030;28;20227;-78
2023/07/20 07:33:25;;;;;;;1.48;1.02;;;;;;;;;;4995566;28;20717;-79
2023/07/20 07:35:56;;;;;;;3.40;0.60;;;;;;;;;;5015242;28;20231;-77
2023/07/20 07:38:21;;;;;;;2.80;1.08;;;;;;;;;;5016100;28;20215;-79
2023/07/20 07:40:47;;;;;;;2.40;0.88;;;;;;;;;;5007345;28;20231;-78
2023/07/20 07:43:13;;;;;;;1.27;1.00;;;;;;;;;;5005724;28;20550;-82
2023/07/20 07:45:39;;;;;;;1.15;0.77;;;;;;;;;;5046439;28;20294;-80
2023/07/20 07:48:05;;;;;;;2.47;1.10;;;;;;;;;;5024920;28;20219;-80
2023/07/20 07:50:33;;;;;;;1.77;1.10;;;;;;;;;;5016571;28;20234;-78
2023/07/20 07:53:00;;;;;;;1.55;0.88;;;;;;;;;;5030120;28;20215;-80
2023/07/20 07:55:28;;;;;;;1.65;0.85;;;;;;;;;;5018825;28;20324;-76
2023/07/20 07:57:53;;;;;;;2.00;0.77;;;;;;;;;;5011235;28;20230;-78
2023/07/20 08:00:19;;;;;;;0.95;0.70;;;;;;;;;;5043938;28;20692;-80
2023/07/20 08:02:46;;;;;;;0.82;0.77;;;;;;;;;;5014700;28;20246;-79
2023/07/20 08:05:12;;;;;;;2.35;1.00;;;;;;;;;;5031417;28;20353;-80
2023/07/20 08:07:38;;;;;;;1.20;0.60;;;;;;;;;;5018508;28;20247;-79
2023/07/20 08:10:06;;;;;;;1.48;0.60;;;;;;;;;;5047583;28;20239;-81
2023/07/20 08:12:32;;;;;;;2.47;0.68;;;;;;;;;;5032842;28;20224;-80
2023/07/20 08:15:00;;;;;;;2.00;0.60;;;;;;;;;;4994203;28;20227;-81
2023/07/20 08:17:30;;;;;;;1.27;0.55;;;;;;;;;;4998345;28;20219;-80
2023/07/20 08:19:58;;;;;;;1.25;0.57;;;;;;;;;;5035364;28;20230;-79
2023/07/20 08:22:23;;;;;;;2.25;0.85;;;;;;;;;;5032192;28;20247;-80
2023/07/20 08:24:49;;;;;;;1.48;0.73;;;;;;;;;;5042308;28;20227;-80
2023/07/20 08:27:17;;;;;;;1.42;0.60;;;;;;;;;;5031374;28;20224;-81
2023/07/20 08:29:45;;;;;;;1.33;0.60;;;;;;;;;;5027527;28;20243;-79
2023/07/20 08:32:10;;;;;;;0.82;0.70;;;;;;;;;;5002942;28;20211;-79
2023/07/20 08:34:41;;;;;;;5.05;0.88;;;;;;;;;;5008785;28;20211;-79
2023/07/20 08:37:10;;;;;;;3.28;1.00;;;;;;;;;;5030757;28;20216;-78
2023/07/20 08:39:35;;;;;;;0.90;0.60;;;;;;;;;;5034039;28;20247;-79
2023/07/20 08:42:04;;;;;;;1.85;0.60;;;;;;;;;;4997005;28;20291;-79
2023/07/20 08:44:32;;;;;;;1.55;0.70;;;;;;;;;;5038655;28;20653;-78
2023/07/20 08:46:57;;;;;;;1.27;0.73;;;;;;;;;;5020860;28;20226;-80
2023/07/20 08:49:22;;;;;;;1.50;0.63;;;;;;;;;;5031410;28;20220;-77
2023/07/20 08:51:48;;;;;;;1.02;0.63;;;;;;;;;;5015700;28;20963;-77
2023/07/20 08:54:16;;;;;;;1.58;0.70;;;;;;;;;;5017130;28;20774;-81
2023/07/20 08:56:43;;;;;;;1.67;0.77;;;;;;;;;;5001505;28;20223;-81
2023/07/20 08:59:09;;;;;;;0.80;0.70;;;;;;;;;;5001142;28;20224;-78
2023/07/20 09:01:40;;;;;;;1.73;0.80;;;;;;;;;;5007880;28;20216;-82
2023/07/20 09:04:06;;;;;;;0.95;0.80;;;;;;;;;;5018378;28;20310;-78
2023/07/20 09:06:34;;;;;;;1.70;0.73;;;;;;;;;;5047007;28;20242;-81
2023/07/20 09:09:06;;;;;;;1.17;0.70;;;;;;;;;;5016805;28;20244;-77
2023/07/20 09:11:31;;;;;;;1.85;0.60;;;;;;;;;;5032315;28;20288;-80
2023/07/20 09:14:08;;;;;;;1.52;0.68;;;;;;;;;;5028000;28;20705;-80
2023/07/20 09:16:50;;;;;;;1.67;0.80;;;;;;;;;;5004521;28;20248;-80
2023/07/20 09:19:16;;;;;;;1.35;0.60;;;;;;;;;;5006235;28;20212;-78
2023/07/20 09:21:47;;;;;;;2.83;0.90;;;;;;;;;;5031548;28;21053;-79
2023/07/20 09:24:13;;;;;;;2.08;1.00;;;;;;;;;;5009721;28;20240;-81
2023/07/20 09:26:44;;;;;;;4.45;0.80;;;;;;;;;;5035591;28;21068;-80
2023/07/20 09:29:12;;;;;;;2.75;0.93;;;;;;;;;;5041748;28;20220;-78
2023/07/20 09:31:40;;;;;;;1.40;0.80;;;;;;;;;;5011963;28;20806;-78
2023/07/20 09:34:06;;;;;;;1.33;0.80;;;;;;;;;;5042692;28;20232;-79
2023/07/20 09:36:37;;;;;;;1.50;0.82;;;;;;;;;;5019625;28;20219;-77
2023/07/20 09:39:04;;;;;;;5.43;0.95;;;;;;;;;;5039780;28;20219;-79
2023/07/20 09:41:47;;;;;;;1.90;1.00;;;;;;;;;;5021985;28;20230;-82
2023/07/20 09:44:15;;;;;;;2.55;0.80;;;;;;;;;;5050774;28;20696;-82
2023/07/20 09:46:44;;;;;;;3.13;0.75;;;;;;;;;;5033453;28;20266;-79
2023/07/20 09:49:10;;;;;;;1.50;0.63;;;;;;;;;;5022146;28;20219;-80
2023/07/20 09:51:36;;;;;;;1.83;1.08;;;;;;;;;;5012728;28;20561;-80
2023/07/20 09:54:01;;;;;;;1.63;0.98;;;;;;;;;;4992924;28;20239;-79
2023/07/20 09:56:27;;;;;;;1.95;0.98;;;;;;;;;;5001571;28;20240;-80
2023/07/20 09:58:56;;;;;;;2.08;0.90;;;;;;;;;;5013137;28;20791;-78
2023/07/20 10:01:22;;;;;;;0.90;0.70;;;;;;;;;;5036919;28;20238;-79
2023/07/20 10:03:48;;;;;;;3.13;1.10;;;;;;;;;;5027126;28;20609;-79
2023/07/20 10:06:15;;;;;;;2.28;1.10;;;;;;;;;;5022796;28;20715;-78
2023/07/20 10:08:43;;;;;;;2.92;1.20;;;;;;;;;;5037747;28;21017;-79
2023/07/20 10:11:08;;;;;;;1.60;1.15;;;;;;;;;;5001990;28;20224;-78
2023/07/20 10:13:37;;;;;;;3.28;1.25;;;;;;;;;;5017071;28;20230;-78
2023/07/20 10:16:11;;;;;;;3.45;1.20;;;;;;;;;;5011751;28;20216;-79
2023/07/20 10:19:10;;;;;;;2.55;1.30;;;;;;;;;;5001551;28;20577;-79
2023/07/20 10:21:40;;;;;;;3.03;1.10;;;;;;;;;;5043938;28;20252;-79
2023/07/20 10:24:08;;;;;;;1.70;1.15;;;;;;;;;;5033814;28;20218;-80
2023/07/20 10:26:36;;;;;;;4.55;1.60;;;;;;;;;;5011718;28;20219;-76
2023/07/20 10:29:04;;;;;;;1.70;1.38;;;;;;;;;;4999193;28;20222;-81
2023/07/20 10:31:32;;;;;;;2.10;1.15;;;;;;;;;;5008821;28;20224;-77
2023/07/20 10:33:59;;;;;;;3.53;1.17;;;;;;;;;;5029196;28;20227;-81
2023/07/20 10:36:27;;;;;;;2.85;1.40;;;;;;;;;;5013097;28;20232;-78
2023/07/20 10:38:54;;;;;;;7.20;1.55;;;;;;;;;;5029031;28;20286;-79
2023/07/20 10:41:31;;;;;;;2.95;1.23;;;;;;;;;;5027189;28;20258;-78
2023/07/20 10:44:07;;;;;;;3.03;1.30;;;;;;;;;;5025372;28;20512;-79
2023/07/20 10:46:39;;;;;;;2.00;1.23;;;;;;;;;;5028289;28;20715;-79
2023/07/20 10:49:08;;;;;;;4.70;1.40;;;;;;;;;;5015580;28;20227;-78
2023/07/20 10:51:43;;;;;;;3.05;1.42;;;;;;;;;;5011738;28;20770;-78
2023/07/20 10:54:16;;;;;;;2.53;1.45;;;;;;;;;;5019198;28;20215;-78
2023/07/20 10:56:42;;;;;;;5.65;1.52;;;;;;;;;;5013646;28;20240;-78
2023/07/20 10:59:40;;;;;;;2.47;1.33;;;;;;;;;;5005771;28;20216;-77
2023/07/20 11:02:09;;;;;;;1.95;1.55;;;;;;;;;;4995576;28;20235;-78
2023/07/20 11:04:44;;;;;;;3.10;1.63;;;;;;;;;;5049321;28;20223;-77
2023/07/20 11:07:09;;;;;;;3.42;1.40;;;;;;;;;;5054665;28;20214;-79
2023/07/20 11:09:41;;;;;;;2.15;1.50;;;;;;;;;;5052646;28;20306;-77
2023/07/20 11:12:24;;;;;;;2.28;1.52;;;;;;;;;;5035943;28;20230;-77
2023/07/20 11:14:54;;;;;;;2.15;1.42;;;;;;;;;;5020945;28;20270;-80
2023/07/20 11:17:22;;;;;;;3.35;1.52;;;;;;;;;;5036112;28;20311;-78
2023/07/20 11:19:55;;;;;;;1.70;1.27;;;;;;;;;;5005462;28;20738;-80
2023/07/20 11:22:25;;;;;;;2.78;1.42;;;;;;;;;;5028740;28;20227;-80
2023/07/20 11:25:05;;;;;;;1.40;1.30;;;;;;;;;;5015315;28;20243;-79
2023/07/20 11:27:37;;;;;;;2.03;1.30;;;;;;;;;;5040502;28;20684;-77
2023/07/20 11:30:03;;;;;;;2.67;1.23;;;;;;;;;;5028057;28;21037;-79
2023/07/20 11:32:29;;;;;;;3.30;1.20;;;;;;;;;;5029702;28;20223;-80
2023/07/20 11:34:56;;;;;;;3.85;1.50;;;;;;;;;;5050541;28;20216;-78
2023/07/20 11:37:22;;;;;;;3.38;1.30;;;;;;;;;;5038646;28;20324;-79
2023/07/20 11:39:48;;;;;;;2.85;1.40;;;;;;;;;;5009625;28;20240;-80
2023/07/20 11:42:13;;;;;;;2.05;1.23;;;;;;;;;;5037284;28;20215;-81
2023/07/20 11:44:39;;;;;;;3.08;1.55;;;;;;;;;;5036055;28;20235;-81
2023/07/20 11:47:08;;;;;;;3.33;1.48;;;;;;;;;;5012040;28;20270;-79
2023/07/20 11:49:35;;;;;;;1.75;1.30;;;;;;;;;;5031284;28;20259;-81
2023/07/20 11:52:04;;;;;;;2.50;1.25;;;;;;;;;;5021188;28;20284;-78
2023/07/20 11:54:29;;;;;;;2.25;1.60;;;;;;;;;;5018057;28;20228;-78
2023/07/20 11:56:56;;;;;;;2.78;1.52;;;;;;;;;;5038017;28;20290;-80
2023/07/20 11:59:26;;;;;;;2.60;1.30;;;;;;;;;;5032267;28;20783;-79
2023/07/20 12:01:52;;;;;;;4.10;1.20;;;;;;;;;;5037214;28;20224;-80
2023/07/20 12:04:17;;;;;;;1.75;1.20;;;;;;;;;;5003394;28;20757;-78
2023/07/20 12:06:44;;;;;;;1.88;0.95;;;;;;;;;;5027534;28;20211;-78
2023/07/20 12:09:13;;;;;;;1.20;1.00;;;;;;;;;;5020408;28;20215;-82
2023/07/20 12:11:39;;;;;;;2.05;1.02;;;;;;;;;;5036994;28;20282;-79
2023/07/20 12:14:11;;;;;;;2.88;1.23;;;;;;;;;;5003842;28;20695;-81
2023/07/20 12:16:39;;;;;;;1.38;0.90;;;;;;;;;;5009813;28;20285;-81
2023/07/20 12:19:09;;;;;;;1.98;1.10;;;;;;;;;;5012707;28;20258;-79
2023/07/20 12:21:39;;;;;;;1.23;0.85;;;;;;;;;;5037555;28;20239;-78
2023/07/20 12:24:09;;;;;;;1.23;1.00;;;;;;;;;;5012310;28;20227;-79
2023/07/20 12:26:35;;;;;;;4.90;1.10;;;;;;;;;;5018560;28;20238;-79
2023/07/20 12:29:06;;;;;;;1.10;0.93;;;;;;;;;;5033792;28;20219;-79
2023/07/20 12:31:33;;;;;;;0.85;0.85;;;;;;;;;;5019639;28;20247;-77
2023/07/20 12:33:59;;;;;;;1.65;0.93;;;;;;;;;;5008189;28;20220;-81
2023/07/20 12:36:26;;;;;;;1.02;0.75;;;;;;;;;;5011595;28;20219;-81
2023/07/20 12:38:58;;;;;;;1.10;0.80;;;;;;;;;;5012945;28;20247;-77
2023/07/20 12:41:23;;;;;;;2.22;1.02;;;;;;;;;;5018404;28;20612;-77
2023/07/20 12:43:52;;;;;;;3.08;1.13;;;;;;;;;;5045363;28;20235;-79
2023/07/20 12:46:22;;;;;;;2.38;1.17;;;;;;;;;;5030663;28;20279;-79
2023/07/20 12:48:50;;;;;;;1.60;0.90;;;;;;;;;;5029868;28;20211;-81
2023/07/20 12:51:15;;;;;;;1.75;0.90;;;;;;;;;;5033084;28;20276;-81
2023/07/20 12:53:41;;;;;;;2.35;1.10;;;;;;;;;;5019181;28;20207;-79
2023/07/20 12:56:09;;;;;;;1.17;0.90;;;;;;;;;;5053654;28;20259;-80
2023/07/20 12:58:34;;;;;;;2.05;1.88;;;;;;;;;;5017362;28;20279;-77
2023/07/20 13:01:00;;;;;;;1.88;1.10;;;;;;;;;;5048329;28;20283;-76
2023/07/20 13:03:28;;;;;;;2.60;1.02;;;;;;;;;;5000834;28;20231;-79
2023/07/20 13:05:53;;;;;;;2.20;0.80;;;;;;;;;;5035190;28;20211;-79
2023/07/20 13:08:20;;;;;;;1.30;1.00;;;;;;;;;;5003502;28;20230;-79
2023/07/20 13:10:48;;;;;;;1.27;1.05;;;;;;;;;;5030631;28;20237;-78
2023/07/20 13:13:14;;;;;;;1.85;1.33;;;;;;;;;;5040387;28;20275;-80
2023/07/20 13:15:44;;;;;;;1.58;1.20;;;;;;;;;;5032065;28;20859;-80
2023/07/20 13:18:09;;;;;;;3.00;1.40;;;;;;;;;;5019543;28;20226;-81
2023/07/20 13:20:37;;;;;;;2.63;1.30;;;;;;;;;;5022788;28;20219;-81
2023/07/20 13:23:03;;;;;;;1.83;1.10;;;;;;;;;;5006165;28;20258;-81
2023/07/20 13:25:29;;;;;;;1.90;1.00;;;;;;;;;;4998947;28;20471;-82
2023/07/20 13:27:54;;;;;;;2.67;1.30;;;;;;;;;;5032450;28;20220;-80
2023/07/20 13:30:22;;;;;;;2.17;1.50;;;;;;;;;;5037890;28;20219;-82
2023/07/20 13:32:53;;;;;;;3.45;1.20;;;;;;;;;;4993950;28;20334;-81
2023/07/20 13:35:20;;;;;;;1.63;1.20;;;;;;;;;;5044389;28;20743;-80
2023/07/20 13:37:49;;;;;;;1.92;1.25;;;;;;;;;;4998665;28;20235;-81
2023/07/20 13:40:19;;;;;;;1.52;1.13;;;;;;;;;;5046218;28;20216;-81
2023/07/20 13:42:45;;;;;;;2.75;1.35;;;;;;;;;;5005550;28;20236;-81
2023/07/20 13:45:13;;;;;;;1.75;1.40;;;;;;;;;;5034643;28;20220;-81
2023/07/20 13:47:40;;;;;;;2.55;1.45;;;;;;;;;;5046589;28;20298;-80
2023/07/20 13:50:06;;;;;;;3.28;1.40;;;;;;;;;;5019102;28;20230;-84
2023/07/20 13:52:32;;;;;;;3.15;1.08;;;;;;;;;;5012977;28;20228;-82
2023/07/20 13:54:57;;;;;;;2.55;1.45;;;;;;;;;;5035402;28;20219;-81
2023/07/20 13:57:25;;;;;;;3.05;1.40;;;;;;;;;;5036266;28;20211;-82
2023/07/20 13:59:53;;;;;;;3.88;1.15;;;;;;;;;;5035473;28;20323;-81
2023/07/20 14:02:19;;;;;;;2.30;1.20;;;;;;;;;;5031310;28;20228;-79
2023/07/20 14:04:44;;;;;;;4.38;1.38;;;;;;;;;;5039180;28;20211;-81
2023/07/20 14:07:11;;;;;;;2.35;1.30;;;;;;;;;;5033617;28;20224;-82
2023/07/20 14:09:38;;;;;;;1.42;1.00;;;;;;;;;;5016406;28;20694;-82
2023/07/20 14:12:04;;;;;;;1.15;1.15;;;;;;;;;;5015821;28;20228;-82
2023/07/20 14:14:32;;;;;;;2.63;1.23;;;;;;;;;;5003138;28;20253;-82
2023/07/20 14:16:58;;;;;;;2.88;1.38;;;;;;;;;;5033902;28;20235;-81
2023/07/20 14:19:23;;;;;;;1.67;1.13;;;;;;;;;;5012953;28;20208;-80
2023/07/20 14:21:49;;;;;;;1.40;1.10;;;;;;;;;;5002824;28;20224;-82
2023/07/20 14:24:17;;;;;;;1.23;1.13;;;;;;;;;;4999280;28;20295;-80
2023/07/20 14:26:48;;;;;;;2.15;1.27;;;;;;;;;;5018007;28;20223;-81
2023/07/20 14:29:13;;;;;;;1.33;1.23;;;;;;;;;;5016614;28;20645;-81
2023/07/20 14:31:39;;;;;;;1.48;1.15;;;;;;;;;;4994173;28;20224;-81
2023/07/20 14:34:06;;;;;;;3.85;1.60;;;;;;;;;;5032552;28;20258;-80
2023/07/20 14:36:32;;;;;;;1.60;1.00;;;;;;;;;;5024721;28;20224;-78
2023/07/20 14:38:57;;;;;;;1.90;1.20;;;;;;;;;;5016129;28;20232;-84
2023/07/20 14:41:23;;;;;;;1.10;0.98;;;;;;;;;;5017102;28;20220;-82
2023/07/20 14:43:48;;;;;;;1.50;1.10;;;;;;;;;;5027059;28;20227;-83
2023/07/20 14:46:16;;;;;;;2.33;1.13;;;;;;;;;;5010565;28;20650;-81
2023/07/20 14:48:42;;;;;;;4.32;1.05;;;;;;;;;;5046318;28;20228;-83
2023/07/20 14:51:10;;;;;;;1.75;0.90;;;;;;;;;;5017621;28;20303;-80